Hlavní strana
METAR-TAF:

METAR-TAF

Letiště :

Skövde, Švédsko

zeměpisná šířka: 58-27N, zeměpisná délka: 013-58E, výška: 98 m

Aktuální stav počasí

Zpráva byla vytvořena před 18 minutami, v 16:20 UTC
Západojihozápadní vítr 3 kt
Teplota 10°C
Vlhkost vzduchu 53%
Tlak 1030 hPa
Viditelnost 10 km a více

METAR: ESGR 281620Z AUTO 25003KT 9999 NCD 10/01 Q1030

Čas: 17:38 (16:38 UTC)


TAF: chybějící

Stav a předpovědi počasí z více než 4 000 letišť (zprávy METAR a TAF).

Červené a žluté tečky na mapě představují dostupné meteorologické stanice.

Když kurzor umístíte na tečku, zobrazí se název stanice.

Pak kliknutím zobrazíte stav a předpověď počasí.

Chcete-li změnit mapu, kliknutím na zelené tlačítko se znaménkem +mapu přiblížíte, kliknutím na zelené tlačítko se znaménkem – mapu oddálíte a kliknutím na zelené šipky přejdete na sousední mapy.


METAR-TAF: